createdAt,value
2018-12-30T00:00:40.933Z,41.17
2018-12-30T00:03:10.949Z,40.50
2018-12-30T00:05:40.631Z,37.20
2018-12-30T00:08:10.130Z,37.93
2018-12-30T00:10:39.608Z,39.00
2018-12-30T00:13:09.010Z,36.30
2018-12-30T00:15:38.477Z,37.07
2018-12-30T00:18:08.157Z,36.63
2018-12-30T00:20:38.842Z,36.93
2018-12-30T00:23:08.495Z,37.50
2018-12-30T00:25:38.161Z,36.27
2018-12-30T00:28:07.661Z,37.97
2018-12-30T00:30:37.136Z,36.50
2018-12-30T00:33:06.576Z,36.03
2018-12-30T00:35:36.159Z,37.53
2018-12-30T00:38:05.761Z,35.20
2018-12-30T00:40:35.367Z,33.73
2018-12-30T00:43:05.356Z,34.90
2018-12-30T00:45:34.842Z,35.17
2018-12-30T00:48:04.292Z,33.90
2018-12-30T00:50:35.314Z,34.13
2018-12-30T00:53:04.956Z,33.40
2018-12-30T00:55:34.512Z,34.40
2018-12-30T00:58:04.192Z,32.90
2018-12-30T01:00:33.826Z,32.70
2018-12-30T01:03:03.420Z,34.70
2018-12-30T01:05:33.014Z,32.43
2018-12-30T01:08:02.524Z,31.57
2018-12-30T01:10:32.105Z,32.13
2018-12-30T01:13:01.574Z,31.23
2018-12-30T01:15:31.140Z,33.60
2018-12-30T01:18:00.704Z,33.20
2018-12-30T01:20:30.222Z,32.37
2018-12-30T01:22:59.787Z,33.80
2018-12-30T01:25:29.442Z,33.87
2018-12-30T01:27:58.952Z,32.80
2018-12-30T01:30:28.766Z,33.23
2018-12-30T01:32:58.301Z,33.63
2018-12-30T01:35:27.839Z,36.33
2018-12-30T01:37:57.538Z,35.77
2018-12-30T01:40:29.387Z,35.93
2018-12-30T01:42:59.004Z,34.27
2018-12-30T01:45:29.070Z,35.43
2018-12-30T01:47:58.603Z,33.70
2018-12-30T01:50:28.258Z,33.87
2018-12-30T01:52:57.797Z,32.90
2018-12-30T01:55:27.453Z,32.77
2018-12-30T01:57:57.018Z,33.30
2018-12-30T02:00:26.632Z,34.67
2018-12-30T02:02:56.180Z,33.43
2018-12-30T02:05:25.732Z,35.43
2018-12-30T02:07:55.341Z,33.67
2018-12-30T02:10:24.848Z,32.17
2018-12-30T02:12:54.442Z,32.80
2018-12-30T02:15:24.035Z,33.77
2018-12-30T02:17:53.492Z,33.27
2018-12-30T02:20:23.039Z,32.70
2018-12-30T02:22:52.576Z,32.00
2018-12-30T02:25:22.152Z,33.17
2018-12-30T02:27:51.662Z,32.90
2018-12-30T02:30:21.161Z,31.27
2018-12-30T02:32:50.706Z,33.03
2018-12-30T02:35:20.273Z,35.10
2018-12-30T02:37:49.915Z,32.67
2018-12-30T02:40:19.371Z,34.30
2018-12-30T02:42:49.217Z,33.77
2018-12-30T02:45:18.747Z,32.30
2018-12-30T02:47:48.316Z,36.13
2018-12-30T02:50:17.893Z,35.07
2018-12-30T02:52:47.393Z,35.30
2018-12-30T02:55:17.051Z,35.23
2018-12-30T02:57:46.597Z,34.07
2018-12-30T03:00:16.114Z,35.17
2018-12-30T03:02:45.752Z,35.03
2018-12-30T03:05:15.306Z,35.53
2018-12-30T03:07:44.877Z,34.93
2018-12-30T03:10:14.568Z,32.60
2018-12-30T03:12:44.090Z,34.40
2018-12-30T03:15:13.641Z,33.77
2018-12-30T03:17:43.288Z,34.40
2018-12-30T03:20:12.835Z,34.00
2018-12-30T03:25:17.276Z,33.83
2018-12-30T03:27:46.771Z,33.27
2018-12-30T03:30:16.305Z,33.93
2018-12-30T03:32:47.597Z,32.17
2018-12-30T03:35:17.019Z,32.37
2018-12-30T03:37:46.460Z,31.27
2018-12-30T03:40:15.893Z,31.17
2018-12-30T03:42:45.380Z,29.43
2018-12-30T03:45:14.853Z,31.27
2018-12-30T03:47:44.248Z,29.73
2018-12-30T03:50:13.776Z,28.20
2018-12-30T03:52:43.177Z,28.10
2018-12-30T03:55:12.531Z,26.57
2018-12-30T03:57:41.971Z,26.03
2018-12-30T04:00:11.325Z,25.10
2018-12-30T04:02:41.848Z,25.33
2018-12-30T04:05:11.348Z,24.83
2018-12-30T04:07:40.847Z,22.83
2018-12-30T04:10:10.276Z,21.87
2018-12-30T04:12:39.588Z,21.40
2018-12-30T04:15:09.030Z,23.20
2018-12-30T04:17:38.462Z,22.43
2018-12-30T04:20:07.806Z,20.63
2018-12-30T04:22:37.327Z,22.43
2018-12-30T04:25:06.819Z,20.70
2018-12-30T04:27:36.321Z,21.80
2018-12-30T04:30:06.120Z,22.47
2018-12-30T04:32:35.569Z,23.60
2018-12-30T04:35:05.149Z,21.27
2018-12-30T04:37:34.584Z,19.93
2018-12-30T04:40:04.682Z,21.00
2018-12-30T04:42:34.079Z,21.57
2018-12-30T04:45:03.560Z,20.70
2018-12-30T04:47:33.100Z,19.47
2018-12-30T04:50:02.503Z,21.27
2018-12-30T04:52:32.046Z,20.40
2018-12-30T04:55:01.494Z,19.67
2018-12-30T04:57:30.988Z,17.63
2018-12-30T05:00:00.650Z,15.60
2018-12-30T05:02:30.122Z,16.23
2018-12-30T05:04:59.542Z,13.50
2018-12-30T05:07:28.907Z,15.13
2018-12-30T05:09:58.242Z,14.23
2018-12-30T05:12:27.633Z,14.33
2018-12-30T05:14:57.092Z,14.80
2018-12-30T05:17:26.608Z,15.63
2018-12-30T05:19:56.093Z,15.23
2018-12-30T05:22:33.531Z,15.13
2018-12-30T05:24:56.722Z,13.80
2018-12-30T05:27:26.153Z,15.77
2018-12-30T05:29:55.600Z,14.57
2018-12-30T05:32:24.982Z,15.87
2018-12-30T05:34:54.518Z,20.73
2018-12-30T05:37:24.090Z,20.77
2018-12-30T05:39:53.521Z,17.57
2018-12-30T05:42:23.010Z,16.33
2018-12-30T05:44:52.580Z,16.63
2018-12-30T05:47:22.009Z,18.23
2018-12-30T05:49:51.576Z,15.73
2018-12-30T05:52:21.071Z,13.30
2018-12-30T05:54:50.568Z,11.90
2018-12-30T05:57:20.059Z,11.67
2018-12-30T05:59:49.435Z,11.07
2018-12-30T06:02:19.023Z,11.90
2018-12-30T06:04:48.612Z,11.67
2018-12-30T06:07:18.173Z,10.10
2018-12-30T06:09:47.595Z,9.60
2018-12-30T06:12:17.128Z,9.80
2018-12-30T06:14:46.678Z,10.27
2018-12-30T06:17:16.134Z,11.87
2018-12-30T06:19:45.719Z,11.50
2018-12-30T06:22:15.250Z,10.17
2018-12-30T06:24:44.812Z,12.67
2018-12-30T06:27:14.235Z,10.60
2018-12-30T06:29:43.663Z,10.90
2018-12-30T06:32:13.158Z,10.37
2018-12-30T06:34:42.679Z,10.10
2018-12-30T06:37:12.141Z,10.60
2018-12-30T06:39:41.692Z,11.03
2018-12-30T06:42:11.241Z,10.63
2018-12-30T06:44:40.750Z,10.27
2018-12-30T06:47:10.293Z,10.73
2018-12-30T06:49:40.745Z,10.40
2018-12-30T06:52:10.253Z,9.90
2018-12-30T06:54:39.787Z,11.47
2018-12-30T06:57:09.356Z,9.93
2018-12-30T06:59:38.774Z,10.50
2018-12-30T07:02:08.327Z,9.13
2018-12-30T07:04:37.808Z,11.10
2018-12-30T07:07:07.277Z,10.47
2018-12-30T07:09:36.811Z,10.43
2018-12-30T07:12:06.338Z,11.30
2018-12-30T07:14:35.821Z,10.93
2018-12-30T07:17:05.247Z,10.63
2018-12-30T07:19:34.715Z,10.80
2018-12-30T07:22:04.262Z,10.87
2018-12-30T07:24:33.831Z,10.70
2018-12-30T07:27:03.340Z,10.43
2018-12-30T07:29:32.892Z,10.67
2018-12-30T07:32:02.403Z,10.53
2018-12-30T07:34:31.922Z,12.63
2018-12-30T07:37:01.441Z,11.67
2018-12-30T07:39:31.370Z,12.23
2018-12-30T07:42:00.957Z,12.47
2018-12-30T07:44:30.484Z,12.93
2018-12-30T07:47:00.037Z,11.90
2018-12-30T07:49:29.660Z,12.37
2018-12-30T07:51:59.150Z,11.60
2018-12-30T07:54:31.459Z,11.00
2018-12-30T07:57:00.904Z,10.20
2018-12-30T07:59:30.481Z,9.93
2018-12-30T08:02:00.031Z,9.67
2018-12-30T08:04:29.639Z,8.70
2018-12-30T08:06:59.199Z,9.10
2018-12-30T08:09:28.735Z,9.20
2018-12-30T08:11:58.513Z,10.37
2018-12-30T08:14:28.095Z,9.47
2018-12-30T08:16:57.632Z,9.10
2018-12-30T08:19:27.186Z,9.17
2018-12-30T08:21:56.710Z,9.25
2018-12-30T08:24:26.241Z,8.60
2018-12-30T08:26:55.713Z,9.93
2018-12-30T08:29:25.280Z,8.83
2018-12-30T08:31:54.762Z,8.07
2018-12-30T08:34:24.265Z,8.03
2018-12-30T08:36:53.752Z,8.13
2018-12-30T08:39:23.248Z,11.73
2018-12-30T08:41:52.847Z,10.80
2018-12-30T08:44:22.473Z,11.07
2018-12-30T08:46:52.039Z,13.07
2018-12-30T08:49:22.773Z,18.10
2018-12-30T08:51:52.294Z,15.80
2018-12-30T08:54:22.408Z,13.70
2018-12-30T08:56:51.982Z,14.80
2018-12-30T08:59:21.615Z,18.90
2018-12-30T09:01:51.159Z,20.27
2018-12-30T09:04:20.751Z,22.60
2018-12-30T09:06:52.038Z,22.07
2018-12-30T09:09:21.649Z,21.00
2018-12-30T09:11:51.090Z,22.33
2018-12-30T09:14:20.862Z,23.30
2018-12-30T09:16:50.298Z,22.90
2018-12-30T09:19:19.141Z,26.90
2018-12-30T09:21:48.681Z,29.93
2018-12-30T09:24:18.223Z,35.27
2018-12-30T09:26:47.820Z,35.90
2018-12-30T09:29:17.365Z,38.47
2018-12-30T09:31:46.862Z,43.13
2018-12-30T09:34:16.469Z,30.90
2018-12-30T09:36:46.008Z,27.27
2018-12-30T09:39:15.543Z,33.67
2018-12-30T09:41:46.209Z,33.73
2018-12-30T09:44:15.804Z,25.30
2018-12-30T09:46:46.309Z,25.93
2018-12-30T09:49:15.868Z,23.53
2018-12-30T09:51:45.462Z,18.37
2018-12-30T09:54:15.058Z,21.33
2018-12-30T09:56:44.638Z,21.50
2018-12-30T09:59:14.193Z,18.40
2018-12-30T10:01:43.766Z,20.43
2018-12-30T10:04:13.306Z,15.13
2018-12-30T10:06:42.808Z,18.77
2018-12-30T10:09:12.350Z,21.33
2018-12-30T10:11:41.754Z,13.83
2018-12-30T10:14:11.268Z,14.37
2018-12-30T10:16:42.388Z,13.67
2018-12-30T10:19:11.752Z,13.03
2018-12-30T10:21:41.114Z,14.23
2018-12-30T10:24:10.573Z,14.17
2018-12-30T10:26:39.920Z,13.17
2018-12-30T10:29:09.388Z,13.27
2018-12-30T10:31:38.839Z,13.53
2018-12-30T10:34:08.355Z,14.40
2018-12-30T10:36:37.792Z,14.80
2018-12-30T10:39:07.639Z,14.40
2018-12-30T10:41:37.150Z,14.83
2018-12-30T10:44:06.734Z,14.90
2018-12-30T10:46:36.085Z,16.40
2018-12-30T10:49:05.593Z,15.17
2018-12-30T10:51:35.039Z,14.87
2018-12-30T10:54:04.372Z,15.57
2018-12-30T10:56:33.812Z,16.03
2018-12-30T10:59:03.189Z,18.70
2018-12-30T11:01:32.656Z,16.87
2018-12-30T11:04:02.053Z,15.83
2018-12-30T11:06:31.474Z,18.40
2018-12-30T11:09:01.015Z,18.77
2018-12-30T11:11:30.483Z,18.43
2018-12-30T11:13:59.983Z,16.47
2018-12-30T11:16:29.429Z,18.23
2018-12-30T11:18:58.899Z,17.20
2018-12-30T11:21:29.660Z,17.73
2018-12-30T11:23:59.060Z,18.80
2018-12-30T11:26:28.499Z,18.93
2018-12-30T11:28:57.940Z,18.47
2018-12-30T11:31:27.355Z,17.80
2018-12-30T11:33:56.768Z,19.27
2018-12-30T11:36:26.215Z,19.93
2018-12-30T11:39:00.471Z,19.87
2018-12-30T11:41:29.954Z,20.00
2018-12-30T11:43:59.500Z,16.97
2018-12-30T11:46:28.929Z,19.77
2018-12-30T11:48:58.393Z,20.30
2018-12-30T11:51:27.902Z,20.00
2018-12-30T11:53:57.343Z,19.83
2018-12-30T11:56:26.794Z,19.70
2018-12-30T11:58:56.219Z,18.40
2018-12-30T12:01:25.651Z,19.10
2018-12-30T12:03:55.078Z,18.37
2018-12-30T12:06:24.468Z,17.33
2018-12-30T12:08:53.937Z,17.97
2018-12-30T12:11:23.358Z,18.30
2018-12-30T12:13:52.735Z,17.57
2018-12-30T12:16:22.182Z,17.67
2018-12-30T12:18:51.607Z,17.70
2018-12-30T12:21:20.989Z,16.50
2018-12-30T12:23:50.454Z,18.30
2018-12-30T12:26:19.786Z,17.90
2018-12-30T12:28:49.309Z,17.13
2018-12-30T12:31:18.684Z,15.73
2018-12-30T12:33:48.169Z,14.77
2018-12-30T12:36:17.550Z,14.63
2018-12-30T12:38:47.003Z,15.63
2018-12-30T12:41:16.472Z,15.30
2018-12-30T12:43:45.923Z,14.27
2018-12-30T12:46:15.470Z,14.63
2018-12-30T12:48:44.905Z,15.10
2018-12-30T12:51:14.355Z,15.77
2018-12-30T12:53:43.730Z,14.73
2018-12-30T12:56:13.279Z,15.90
2018-12-30T12:58:42.661Z,15.27
2018-12-30T13:01:12.101Z,14.40
2018-12-30T13:03:41.603Z,14.20
2018-12-30T13:06:11.031Z,15.77
2018-12-30T13:08:40.407Z,14.83
2018-12-30T13:11:09.811Z,15.27
2018-12-30T13:13:39.282Z,14.23
2018-12-30T13:16:08.703Z,14.20
2018-12-30T13:18:38.143Z,15.30
2018-12-30T13:21:07.612Z,15.03
2018-12-30T13:23:37.070Z,15.27
2018-12-30T13:26:06.498Z,14.70
2018-12-30T13:28:35.964Z,15.00
2018-12-30T13:31:05.300Z,15.77
2018-12-30T13:33:34.707Z,14.33
2018-12-30T13:36:04.484Z,15.07
2018-12-30T13:38:33.857Z,14.87
2018-12-30T13:41:03.238Z,13.93
2018-12-30T13:43:32.672Z,13.77
2018-12-30T13:46:02.170Z,14.67
2018-12-30T13:48:31.633Z,14.27
2018-12-30T13:51:01.013Z,15.23
2018-12-30T13:53:30.384Z,14.30
2018-12-30T13:55:59.771Z,14.33
2018-12-30T13:58:29.280Z,15.87
2018-12-30T14:00:58.621Z,15.40
2018-12-30T14:03:27.992Z,15.47
2018-12-30T14:05:57.355Z,15.80
2018-12-30T14:08:26.759Z,14.93
2018-12-30T14:10:56.189Z,14.23
2018-12-30T14:13:25.557Z,14.57
2018-12-30T14:15:55.015Z,13.93
2018-12-30T14:18:24.761Z,14.23
2018-12-30T14:20:54.278Z,14.57
2018-12-30T14:23:23.828Z,14.90
2018-12-30T14:25:53.280Z,14.87
2018-12-30T14:28:22.786Z,14.67
2018-12-30T14:30:52.174Z,15.30
2018-12-30T14:33:21.627Z,14.90
2018-12-30T14:35:51.097Z,14.57
2018-12-30T14:38:20.499Z,15.20
2018-12-30T14:40:49.888Z,14.13
2018-12-30T14:43:19.277Z,13.67
2018-12-30T14:45:48.734Z,12.77
2018-12-30T14:48:18.226Z,13.43
2018-12-30T14:50:47.864Z,12.43
2018-12-30T14:53:19.307Z,13.37
2018-12-30T14:55:48.369Z,12.97
2018-12-30T14:58:17.816Z,13.60
2018-12-30T15:00:47.762Z,13.90
2018-12-30T15:03:17.312Z,12.33
2018-12-30T15:05:46.779Z,12.90
2018-12-30T15:08:18.040Z,12.63
2018-12-30T15:10:47.495Z,14.20
2018-12-30T15:13:16.947Z,18.53
2018-12-30T15:15:46.441Z,20.37
2018-12-30T15:18:15.958Z,19.73
2018-12-30T15:20:45.535Z,26.03
2018-12-30T15:23:15.046Z,21.30
2018-12-30T15:25:44.534Z,22.53
2018-12-30T15:28:13.945Z,22.20
2018-12-30T15:30:43.433Z,22.30
2018-12-30T15:33:12.817Z,28.10
2018-12-30T15:35:42.308Z,21.53
2018-12-30T15:38:11.727Z,26.83
2018-12-30T15:40:41.145Z,23.63
2018-12-30T15:43:10.579Z,26.57
2018-12-30T15:45:40.010Z,24.53
2018-12-30T15:48:10.311Z,22.87
2018-12-30T15:50:39.615Z,24.90
2018-12-30T15:53:08.973Z,24.53
2018-12-30T15:55:38.473Z,25.93
2018-12-30T15:58:07.868Z,29.23
2018-12-30T16:00:37.271Z,31.87
2018-12-30T16:03:06.717Z,27.83
2018-12-30T16:05:36.135Z,33.27
2018-12-30T16:08:05.616Z,33.03
2018-12-30T16:10:34.964Z,29.67
2018-12-30T16:13:04.438Z,30.10
2018-12-30T16:15:33.812Z,30.20
2018-12-30T16:18:03.298Z,27.93
2018-12-30T16:20:32.975Z,29.37
2018-12-30T16:23:02.481Z,24.60
2018-12-30T16:25:31.892Z,22.93
2018-12-30T16:28:01.339Z,23.80
2018-12-30T16:30:30.850Z,26.57
2018-12-30T16:33:00.267Z,25.33
2018-12-30T16:35:29.700Z,25.67
2018-12-30T16:37:59.161Z,25.20
2018-12-30T16:40:28.536Z,24.43
2018-12-30T16:42:57.949Z,25.10
2018-12-30T16:45:27.514Z,28.63
2018-12-30T16:47:56.928Z,27.93
2018-12-30T16:50:27.824Z,30.23
2018-12-30T16:52:57.315Z,32.10
2018-12-30T16:55:26.826Z,31.90
2018-12-30T16:57:56.282Z,28.80
2018-12-30T17:00:25.809Z,29.43
2018-12-30T17:02:55.167Z,26.90
2018-12-30T17:05:24.588Z,26.93
2018-12-30T17:07:54.060Z,27.47
2018-12-30T17:10:23.393Z,27.10
2018-12-30T17:12:52.795Z,26.03
2018-12-30T17:15:22.177Z,26.93
2018-12-30T17:17:51.584Z,27.13
2018-12-30T17:20:21.067Z,27.73
2018-12-30T17:22:50.439Z,28.13
2018-12-30T17:25:19.967Z,27.37
2018-12-30T17:27:49.349Z,27.70
2018-12-30T17:30:18.768Z,26.63
2018-12-30T17:32:48.272Z,29.30
2018-12-30T17:35:17.874Z,29.60
2018-12-30T17:37:50.341Z,35.60
2018-12-30T17:40:23.028Z,32.30
2018-12-30T17:42:52.559Z,32.67
2018-12-30T17:45:23.714Z,33.30
2018-12-30T17:47:53.290Z,35.23
2018-12-30T17:50:22.908Z,30.77
2018-12-30T17:52:52.422Z,32.17
2018-12-30T17:55:23.499Z,30.97
2018-12-30T17:57:53.070Z,31.00
2018-12-30T18:00:22.644Z,33.00
2018-12-30T18:02:52.167Z,32.00
2018-12-30T18:05:22.289Z,31.80
2018-12-30T18:07:53.797Z,34.53
2018-12-30T18:10:23.351Z,38.77
2018-12-30T18:12:55.114Z,33.90
2018-12-30T18:15:24.563Z,32.00
2018-12-30T18:17:54.229Z,37.83
2018-12-30T18:20:24.276Z,36.37
2018-12-30T18:22:54.155Z,38.47
2018-12-30T18:25:23.570Z,41.87
2018-12-30T18:27:53.090Z,43.93
2018-12-30T18:30:23.766Z,43.87
2018-12-30T18:32:53.537Z,44.30
2018-12-30T18:35:23.429Z,40.90
2018-12-30T18:37:54.041Z,40.33
2018-12-30T18:40:23.835Z,45.33
2018-12-30T18:42:55.314Z,39.37
2018-12-30T18:45:24.921Z,41.10
2018-12-30T18:47:54.442Z,41.67
2018-12-30T18:50:26.845Z,40.20
2018-12-30T18:52:56.491Z,45.17
2018-12-30T18:55:26.158Z,43.07
2018-12-30T18:57:55.741Z,38.83
2018-12-30T19:00:25.643Z,39.27
2018-12-30T19:02:55.479Z,37.80
2018-12-30T19:05:25.042Z,34.50
2018-12-30T19:07:54.577Z,34.30
2018-12-30T19:10:24.215Z,36.83
2018-12-30T19:12:56.283Z,37.27
2018-12-30T19:15:25.862Z,36.93
2018-12-30T19:17:57.212Z,38.17
2018-12-30T19:20:29.121Z,38.50
2018-12-30T19:22:58.564Z,37.07
2018-12-30T19:25:28.032Z,33.70
2018-12-30T19:27:57.641Z,36.10
2018-12-30T19:30:27.252Z,34.67
2018-12-30T19:32:56.898Z,35.03
2018-12-30T19:35:28.662Z,35.03
2018-12-30T19:37:58.296Z,36.53
2018-12-30T19:40:27.885Z,38.57
2018-12-30T19:42:57.446Z,39.40
2018-12-30T19:45:27.064Z,33.33
2018-12-30T19:47:56.677Z,31.37
2018-12-30T19:50:26.230Z,37.50
2018-12-30T19:52:58.619Z,35.00
2018-12-30T19:55:28.198Z,32.30
2018-12-30T19:58:01.307Z,26.07
2018-12-30T20:00:31.114Z,26.00
2018-12-30T20:03:00.727Z,26.73
2018-12-30T20:05:30.321Z,26.57
2018-12-30T20:07:59.896Z,26.83
2018-12-30T20:10:29.395Z,27.60
2018-12-30T20:12:58.957Z,26.13
2018-12-30T20:15:28.566Z,26.13
2018-12-30T20:17:58.332Z,24.87
2018-12-30T20:20:27.833Z,25.10
2018-12-30T20:22:58.555Z,29.50
2018-12-30T20:25:28.193Z,29.23
2018-12-30T20:27:57.852Z,30.77
2018-12-30T20:30:27.430Z,31.17
2018-12-30T20:32:56.983Z,29.93
2018-12-30T20:35:27.671Z,30.53
2018-12-30T20:37:57.346Z,31.00
2018-12-30T20:40:27.938Z,31.27
2018-12-30T20:42:58.308Z,33.00
2018-12-30T20:45:27.991Z,34.00
2018-12-30T20:47:57.491Z,38.93
2018-12-30T20:50:27.034Z,33.83
2018-12-30T20:53:02.469Z,30.87
2018-12-30T20:55:32.107Z,31.63
2018-12-30T20:58:01.651Z,34.10
2018-12-30T21:00:33.431Z,32.40
2018-12-30T21:03:05.505Z,33.30
2018-12-30T21:05:35.131Z,32.97
2018-12-30T21:08:04.665Z,33.27
2018-12-30T21:10:34.525Z,36.03
2018-12-30T21:13:04.234Z,40.53
2018-12-30T21:15:33.722Z,36.13
2018-12-30T21:18:03.287Z,35.33
2018-12-30T21:20:32.869Z,34.50
2018-12-30T21:23:02.334Z,33.83
2018-12-30T21:25:31.980Z,32.70
2018-12-30T21:28:01.414Z,32.93
2018-12-30T21:30:30.951Z,30.53
2018-12-30T21:33:02.477Z,31.73
2018-12-30T21:35:33.965Z,30.47
2018-12-30T21:38:03.330Z,31.83
2018-12-30T21:40:32.893Z,35.13
2018-12-30T21:43:02.550Z,37.27
2018-12-30T21:45:32.453Z,38.73
2018-12-30T21:48:02.227Z,35.87
2018-12-30T21:50:31.950Z,38.23
2018-12-30T21:53:01.897Z,37.30
2018-12-30T21:55:32.554Z,37.50
2018-12-30T21:58:02.118Z,33.90
2018-12-30T22:00:32.857Z,34.57
2018-12-30T22:03:02.530Z,34.53
2018-12-30T22:05:35.157Z,35.63
2018-12-30T22:08:05.009Z,34.10
2018-12-30T22:10:36.071Z,37.27
2018-12-30T22:13:08.507Z,35.97
2018-12-30T22:15:38.060Z,34.97
2018-12-30T22:18:09.735Z,34.30
2018-12-30T22:20:41.078Z,37.90
2018-12-30T22:23:10.667Z,35.37
2018-12-30T22:25:42.140Z,36.23
2018-12-30T22:28:12.627Z,38.30
2018-12-30T22:30:42.155Z,40.40
2018-12-30T22:33:11.861Z,38.00
2018-12-30T22:35:41.474Z,41.23
2018-12-30T22:38:11.176Z,38.13
2018-12-30T22:40:40.703Z,41.10
2018-12-30T22:43:10.308Z,39.20
2018-12-30T22:45:39.854Z,39.30
2018-12-30T22:48:09.378Z,40.13
2018-12-30T22:50:40.078Z,37.27
2018-12-30T22:53:09.625Z,39.70
2018-12-30T22:55:39.663Z,38.07
2018-12-30T22:58:09.237Z,41.03
2018-12-30T23:01:01.453Z,40.07
2018-12-30T23:03:31.869Z,37.27
2018-12-30T23:06:01.338Z,38.13
2018-12-30T23:08:30.926Z,39.93
2018-12-30T23:11:00.459Z,40.20
2018-12-30T23:13:30.004Z,37.00
2018-12-30T23:15:59.547Z,38.40
2018-12-30T23:18:29.376Z,37.03
2018-12-30T23:20:58.941Z,39.17
2018-12-30T23:23:28.471Z,37.37
2018-12-30T23:26:01.587Z,38.50
2018-12-30T23:28:31.445Z,38.10
2018-12-30T23:31:00.990Z,37.30
2018-12-30T23:33:30.942Z,36.03
2018-12-30T23:36:01.447Z,37.53
2018-12-30T23:38:30.918Z,36.77
2018-12-30T23:41:00.481Z,37.13
2018-12-30T23:43:29.951Z,35.70
2018-12-30T23:45:59.590Z,37.30
2018-12-30T23:48:29.146Z,35.27
2018-12-30T23:50:58.666Z,33.30
2018-12-30T23:53:29.553Z,32.40
2018-12-30T23:55:59.225Z,32.93
2018-12-30T23:58:28.761Z,34.93
